Time;durP1;ratioP1;P1;durP2;ratioP2;P2;SDS_P1;SDS_P2;PMS_P1;PMS_P2;Temp;Humidity;BMP_temperature;BMP_pressure;BME280_temperature;BME280_humidity;BME280_pressure;Samples;Min_cycle;Max_cycle;Signal;HPM_P1;HPM_P2
2022/11/14 00:00:34;;;;;;;;;32.25;28.50;;;;;11.43;65.29;100703.47;5015423;28;46048;-74
2022/11/14 00:03:02;;;;;;;;;21.25;19.00;;;;;11.43;65.30;100699.06;5015468;28;45521;-72
2022/11/14 00:05:28;;;;;;;;;28.25;24.00;;;;;11.42;65.47;100692.16;5015508;28;45616;-73
2022/11/14 00:07:53;;;;;;;;;30.00;26.75;;;;;11.40;65.37;100691.41;5015043;28;46181;-73
2022/11/14 00:13:40;;;;;;;;;36.50;30.25;;;;;11.33;65.71;100684.97;5015357;28;45998;-73
2022/11/14 00:16:06;;;;;;;;;35.75;31.00;;;;;11.31;65.61;100677.19;5015236;28;45738;-74
2022/11/14 00:18:31;;;;;;;;;41.50;35.00;;;;;11.31;65.78;100678.97;5014590;28;46178;-74
2022/11/14 00:20:56;;;;;;;;;44.75;36.00;;;;;11.29;65.77;100679.06;5015218;28;45939;-73
2022/11/14 00:23:22;;;;;;;;;42.00;33.00;;;;;11.28;65.83;100666.91;5015395;28;45588;-74
2022/11/14 00:29:14;;;;;;;;;41.25;33.25;;;;;11.31;65.84;100671.09;5014996;28;46079;-74
2022/11/14 00:31:39;;;;;;;;;35.25;30.25;;;;;11.29;65.98;100665.97;5015084;28;46383;-74
2022/11/14 00:34:05;;;;;;;;;39.00;34.00;;;;;11.29;65.85;100665.97;5014542;28;45978;-73
2022/11/14 00:36:30;;;;;;;;;41.00;31.00;;;;;11.28;66.05;100672.16;5014919;28;45629;-73
2022/11/14 00:38:56;;;;;;;;;32.00;27.75;;;;;11.30;65.93;100667.66;5014708;28;45611;-74
2022/11/14 00:41:21;;;;;;;;;39.50;32.00;;;;;11.31;66.01;100665.84;5014913;28;45632;-74
2022/11/14 00:43:47;;;;;;;;;31.75;24.75;;;;;11.29;66.03;100668.59;5014954;28;45549;-74
2022/11/14 00:46:12;;;;;;;;;38.50;30.00;;;;;11.31;66.09;100663.25;5015126;28;45623;-74
2022/11/14 00:48:38;;;;;;;;;41.50;34.75;;;;;11.30;66.02;100656.31;5014535;28;45552;-73
2022/11/14 00:51:04;;;;;;;;;38.50;35.25;;;;;11.31;66.04;100652.75;5014710;28;46082;-74
2022/11/14 00:53:29;;;;;;;;;44.00;36.75;;;;;11.28;66.17;100653.78;4996818;28;45567;-74
2022/11/14 00:59:16;;;;;;;;;40.25;34.75;;;;;11.25;66.23;100655.81;5014209;28;45625;-74
2022/11/14 01:01:42;;;;;;;;;35.50;29.25;;;;;11.17;66.08;100647.69;5014744;28;45779;-73
2022/11/14 01:04:07;;;;;;;;;41.50;34.50;;;;;11.22;66.27;100649.03;4996689;28;45576;-73
2022/11/14 01:06:32;;;;;;;;;34.50;30.25;;;;;11.18;66.33;100644.94;5014700;28;45643;-73
2022/11/14 01:08:58;;;;;;;;;35.75;30.50;;;;;11.22;66.20;100648.19;5014084;28;47762;-74
2022/11/14 01:14:45;;;;;;;;;32.50;29.75;;;;;11.26;66.10;100653.09;5014105;28;45658;-74
2022/11/14 01:17:10;;;;;;;;;36.00;31.25;;;;;11.27;66.27;100643.44;5014439;28;45611;-74
2022/11/14 01:19:36;;;;;;;;;41.00;32.25;;;;;11.28;66.21;100643.31;5014139;28;45658;-73
2022/11/14 01:22:01;;;;;;;;;35.00;31.00;;;;;11.24;66.22;100635.78;5013447;28;45985;-74
2022/11/14 01:24:27;;;;;;;;;33.00;28.25;;;;;11.24;66.22;100630.53;5014285;28;45683;-74
2022/11/14 01:26:55;;;;;;;;;28.25;25.50;;;;;11.28;66.20;100632.00;5013950;28;45606;-74
2022/11/14 01:29:20;;;;;;;;;27.25;24.00;;;;;11.24;66.35;100626.13;5013773;28;47307;-73
2022/11/14 01:31:46;;;;;;;;;32.50;26.00;;;;;11.23;66.19;100626.22;5014027;28;46163;-73
2022/11/14 01:34:11;;;;;;;;;31.50;24.75;;;;;11.23;66.32;100629.69;5013809;28;45615;-73
2022/11/14 01:36:36;;;;;;;;;26.25;25.25;;;;;11.18;66.18;100613.47;5013698;28;45776;-73
2022/11/14 01:39:02;;;;;;;;;29.75;26.00;;;;;11.24;66.18;100633.16;5013710;28;46448;-73
2022/11/14 01:44:51;;;;;;;;;32.00;28.25;;;;;11.26;66.06;100608.50;5013718;28;45920;-74
2022/11/14 01:47:25;;;;;;;;;31.00;27.25;;;;;11.23;66.10;100600.00;5013895;28;45760;-73
2022/11/14 01:49:56;;;;;;;;;32.25;31.00;;;;;11.26;66.16;100603.25;4995655;28;47656;-73
2022/11/14 01:52:33;;;;;;;;;34.25;30.00;;;;;11.26;66.06;100603.25;5013502;28;46142;-72
2022/11/14 01:55:02;;;;;;;;;27.75;26.25;;;;;11.27;66.14;100601.47;5013546;28;45522;-73
2022/11/14 01:57:32;;;;;;;;;36.75;29.75;;;;;11.26;66.19;100600.63;5013977;28;45752;-73
2022/11/14 02:00:03;;;;;;;;;29.00;26.75;;;;;11.23;66.29;100586.91;5013419;28;46624;-73
2022/11/14 02:02:28;;;;;;;;;33.25;25.75;;;;;11.22;66.09;100593.13;5013266;28;46126;-73
2022/11/14 02:05:07;;;;;;;;;26.00;24.25;;;;;11.24;65.95;100599.06;4995638;28;45855;-72
2022/11/14 02:07:36;;;;;;;;;27.00;25.50;;;;;11.24;66.18;100601.69;5013580;28;45492;-72
2022/11/14 02:10:06;;;;;;;;;25.75;20.25;;;;;11.26;66.26;100605.03;5013399;28;45646;-72
2022/11/14 02:12:32;;;;;;;;;26.00;23.25;;;;;11.21;66.26;100597.53;5012647;28;46722;-74
2022/11/14 02:14:58;;;;;;;;;32.50;27.75;;;;;11.24;66.29;100605.16;5013646;28;45810;-73
2022/11/14 02:17:25;;;;;;;;;31.50;26.75;;;;;11.17;66.09;100600.50;5013151;28;45857;-74
2022/11/14 02:19:56;;;;;;;;;32.50;26.75;;;;;11.21;66.15;100608.00;5013424;28;45648;-74
2022/11/14 02:22:22;;;;;;;;;34.75;30.25;;;;;11.20;66.32;100608.94;5013623;28;46323;-74
2022/11/14 02:24:47;;;;;;;;;35.75;31.00;;;;;11.18;66.20;100600.34;5013552;28;45699;-73
2022/11/14 02:30:34;;;;;;;;;29.75;25.50;;;;;11.15;66.14;100599.75;5013202;28;46023;-73
2022/11/14 02:33:00;;;;;;;;;28.00;23.50;;;;;11.07;66.23;100591.59;5013002;28;46962;-75
2022/11/14 02:35:25;;;;;;;;;28.50;23.50;;;;;11.11;66.07;100587.81;5016195;28;45711;-72
2022/11/14 02:37:50;;;;;;;;;26.00;22.75;;;;;11.10;66.17;100586.16;5016868;28;45628;-73
2022/11/14 02:40:16;;;;;;;;;24.75;21.50;;;;;11.06;66.10;100587.31;5016655;28;45675;-75
2022/11/14 02:42:41;;;;;;;;;29.50;24.50;;;;;11.03;66.23;100577.06;5016881;28;45663;-74
2022/11/14 02:45:08;;;;;;;;;24.75;20.00;;;;;10.96;66.15;100568.78;5016443;28;45720;-74
2022/11/14 02:47:33;;;;;;;;;30.00;23.25;;;;;10.89;66.33;100557.09;4998724;28;45694;-73
2022/11/14 02:49:59;;;;;;;;;24.25;22.00;;;;;11.00;66.41;100572.03;5016640;28;46745;-72
2022/11/14 02:52:24;;;;;;;;;23.75;15.50;;;;;10.97;66.30;100567.00;5016584;28;46020;-72
2022/11/14 02:54:49;;;;;;;;;29.50;25.00;;;;;10.88;66.09;100558.88;5016760;28;45637;-74
2022/11/14 03:00:36;;;;;;;;;24.50;21.00;;;;;10.97;66.37;100567.00;5016397;28;46029;-74
2022/11/14 03:03:01;;;;;;;;;24.25;19.75;;;;;10.93;66.50;100559.38;5016182;28;46417;-76
2022/11/14 03:05:27;;;;;;;;;28.25;22.50;;;;;10.90;66.28;100550.91;5016650;28;45777;-72
2022/11/14 03:07:53;;;;;;;;;22.75;20.00;;;;;10.76;66.60;100536.19;5016515;28;45511;-74
2022/11/14 03:10:19;;;;;;;;;19.75;15.25;;;;;10.76;66.71;100544.03;4998316;28;46513;-74
2022/11/14 03:16:08;;;;;;;;;19.25;16.25;;;;;10.67;66.61;100543.88;5015979;28;45798;-73
2022/11/14 03:18:34;;;;;;;;;19.25;18.00;;;;;10.67;66.76;100541.25;4998180;28;45936;-73
2022/11/14 03:21:07;;;;;;;;;23.50;20.25;;;;;10.66;66.92;100537.81;5015917;28;47339;-74
2022/11/14 03:23:32;;;;;;;;;23.25;21.00;;;;;10.65;66.64;100543.16;5016260;28;45997;-73
2022/11/14 03:26:00;;;;;;;;;20.75;20.25;;;;;10.64;66.86;100541.47;5015930;28;45878;-73
2022/11/14 03:28:26;;;;;;;;;23.00;18.25;;;;;10.56;66.84;100528.09;5015939;28;45820;-74
2022/11/14 03:30:51;;;;;;;;;26.25;19.75;;;;;10.60;66.97;100540.03;5015771;28;46399;-73
2022/11/14 03:33:16;;;;;;;;;21.50;17.75;;;;;10.57;66.99;100541.09;5015760;28;46025;-72
2022/11/14 03:35:42;;;;;;;;;22.75;21.00;;;;;10.55;66.99;100539.53;5015586;28;45637;-74
2022/11/14 03:38:08;;;;;;;;;19.25;17.50;;;;;10.51;67.00;100537.13;5015550;28;45591;-73
2022/11/14 03:40:33;;;;;;;;;21.00;18.25;;;;;10.51;67.13;100541.53;4998353;28;45687;-72
2022/11/14 03:46:20;;;;;;;;;21.00;17.50;;;;;10.47;67.40;100546.13;5015347;28;45531;-73
2022/11/14 03:48:46;;;;;;;;;22.50;17.25;;;;;10.44;67.55;100530.66;5015640;28;45917;-72
2022/11/14 03:51:12;;;;;;;;;22.50;20.25;;;;;10.47;67.27;100532.25;5015749;28;45415;-74
2022/11/14 03:53:38;;;;;;;;;25.25;18.00;;;;;10.46;67.32;100530.56;5015753;28;46031;-74
2022/11/14 03:56:03;;;;;;;;;21.00;16.75;;;;;10.49;67.14;100532.94;5015273;28;45579;-74
2022/11/14 03:58:29;;;;;;;;;24.50;20.50;;;;;10.48;67.34;100524.25;5015484;28;45626;-75
2022/11/14 04:00:54;;;;;;;;;21.75;18.50;;;;;10.46;67.34;100507.81;5015390;28;47349;-74
2022/11/14 04:03:21;;;;;;;;;19.50;15.50;;;;;10.51;67.44;100520.59;5015161;28;46181;-73
2022/11/14 04:05:48;;;;;;;;;16.50;13.50;;;;;10.51;67.30;100525.81;5015397;28;45541;-73
2022/11/14 04:08:13;;;;;;;;;20.25;17.25;;;;;10.50;67.46;100522.38;5015272;28;46119;-74
2022/11/14 04:10:40;;;;;;;;;19.25;15.50;;;;;10.47;67.52;100506.03;5015027;28;47422;-72
2022/11/14 04:16:27;;;;;;;;;18.25;14.75;;;;;10.47;67.34;100508.66;5014955;28;45725;-73
2022/11/14 04:18:52;;;;;;;;;18.00;15.50;;;;;10.44;67.56;100511.50;5015009;28;45615;-73
2022/11/14 04:21:17;;;;;;;;;20.75;18.00;;;;;10.51;67.44;100537.13;5015262;28;47004;-73
2022/11/14 04:23:43;;;;;;;;;17.50;14.50;;;;;10.49;67.35;100522.47;5015430;28;45595;-73
2022/11/14 04:26:08;;;;;;;;;25.00;19.25;;;;;10.51;67.41;100536.31;5015134;28;45560;-73
2022/11/14 04:31:55;;;;;;;;;16.75;14.75;;;;;10.48;67.71;100532.09;5015002;28;45751;-73
2022/11/14 04:34:20;;;;;;;;;17.00;13.75;;;;;10.47;67.59;100535.66;5014525;28;45731;-72
2022/11/14 04:36:46;;;;;;;;;18.50;16.50;;;;;10.45;67.75;100532.34;5014618;28;45804;-73
2022/11/14 04:39:11;;;;;;;;;18.75;13.00;;;;;10.42;67.96;100529.91;5014872;28;45747;-73
2022/11/14 04:41:37;;;;;;;;;22.50;17.00;;;;;10.38;67.76;100519.78;5014528;28;47334;-74
2022/11/14 04:44:02;;;;;;;;;18.75;17.25;;;;;10.34;68.05;100518.34;5014788;28;46008;-74
2022/11/14 04:46:27;;;;;;;;;21.75;15.25;;;;;10.36;68.14;100535.63;4996639;28;45715;-73
2022/11/14 04:48:53;;;;;;;;;20.00;16.00;;;;;10.35;67.87;100528.72;5014890;28;45523;-73
2022/11/14 04:51:18;;;;;;;;;14.00;10.75;;;;;10.30;67.93;100506.41;5014946;28;45612;-73
2022/11/14 04:53:43;;;;;;;;;12.25;11.25;;;;;10.34;67.89;100519.19;5014367;28;47391;-73
2022/11/14 04:56:09;;;;;;;;;17.50;15.50;;;;;10.26;67.87;100508.41;5013791;28;45441;-73
2022/11/14 05:01:56;;;;;;;;;12.75;12.25;;;;;10.32;68.09;100512.34;5014408;28;46021;-73
2022/11/14 05:04:21;;;;;;;;;14.00;12.00;;;;;10.29;67.92;100499.50;5014520;28;46002;-73
2022/11/14 05:06:46;;;;;;;;;16.25;14.50;;;;;10.33;68.00;100500.94;5014315;28;45700;-74
2022/11/14 05:09:12;;;;;;;;;12.25;8.00;;;;;10.31;68.19;100498.44;5014546;28;45565;-73
2022/11/14 05:11:37;;;;;;;;;21.75;14.75;;;;;10.30;68.03;100490.72;5014405;28;45621;-73
2022/11/14 05:17:26;;;;;;;;;19.25;16.00;;;;;10.31;67.83;100497.63;5014065;28;45832;-73
2022/11/14 05:19:52;;;;;;;;;14.75;12.00;;;;;10.31;68.33;100487.94;5014313;28;45869;-73
2022/11/14 05:22:17;;;;;;;;;12.75;12.00;;;;;10.25;68.20;100477.94;5014072;28;47372;-73
2022/11/14 05:24:43;;;;;;;;;17.00;13.25;;;;;10.33;68.17;100496.53;5014508;28;46297;-73
2022/11/14 05:27:08;;;;;;;;;17.50;12.25;;;;;10.32;68.08;100483.56;5014062;28;45683;-73
2022/11/14 05:29:33;;;;;;;;;16.50;14.25;;;;;10.35;68.07;100493.81;5014155;28;45731;-72
2022/11/14 05:31:59;;;;;;;;;16.25;12.50;;;;;10.34;68.24;100486.91;5014174;28;45530;-73
2022/11/14 05:34:25;;;;;;;;;15.75;12.50;;;;;10.29;68.55;100479.41;5001669;28;48038;-73
2022/11/14 05:36:50;;;;;;;;;12.00;11.00;;;;;10.27;68.31;100476.03;5013633;28;45543;-74
2022/11/14 05:39:15;;;;;;;;;18.00;13.25;;;;;10.19;68.54;100462.69;5014270;28;45775;-74
2022/11/14 05:41:41;;;;;;;;;14.50;13.00;;;;;10.22;68.38;100470.31;5014029;28;45485;-73
2022/11/14 05:47:28;;;;;;;;;12.25;11.00;;;;;10.16;68.69;100459.38;5013688;28;45655;-74
2022/11/14 05:49:53;;;;;;;;;17.25;12.25;;;;;10.17;68.40;100463.72;5012376;28;45495;-73
2022/11/14 05:52:19;;;;;;;;;10.75;8.25;;;;;10.18;68.57;100455.75;5013749;28;46462;-74
2022/11/14 05:54:44;;;;;;;;;12.75;11.75;;;;;10.17;68.58;100453.25;5013913;28;45580;-74
2022/11/14 05:57:09;;;;;;;;;17.25;12.75;;;;;10.18;68.39;100457.53;5012264;28;46145;-73
2022/11/14 06:02:56;;;;;;;;;16.25;15.25;;;;;10.25;68.59;100440.47;5013444;28;45663;-74
2022/11/14 06:05:22;;;;;;;;;14.50;12.50;;;;;10.19;68.84;100431.25;5013357;28;46196;-74
2022/11/14 06:07:54;;;;;;;;;20.50;15.25;;;;;10.24;68.66;100444.84;5014215;28;45682;-74
2022/11/14 06:10:19;;;;;;;;;17.00;15.50;;;;;10.19;68.88;100435.66;5017339;28;45646;-73
2022/11/14 06:12:44;;;;;;;;;18.00;15.50;;;;;10.26;68.84;100452.56;5017236;28;46442;-73
2022/11/14 06:15:10;;;;;;;;;20.75;15.75;;;;;10.24;68.63;100441.41;5016948;28;46976;-74
2022/11/14 06:17:35;;;;;;;;;22.50;15.00;;;;;10.24;68.66;100444.84;5016827;28;45655;-74
2022/11/14 06:20:00;;;;;;;;;21.00;18.50;;;;;10.28;68.87;100443.69;5017396;28;45552;-73
2022/11/14 06:22:26;;;;;;;;;18.25;16.00;;;;;10.28;68.67;100440.22;5016855;28;47408;-72
2022/11/14 06:24:51;;;;;;;;;17.00;15.00;;;;;10.27;68.69;100439.38;5017130;28;45683;-73
2022/11/14 06:27:16;;;;;;;;;23.25;17.50;;;;;10.33;68.94;100449.41;5016794;28;45661;-73
2022/11/14 06:33:03;;;;;;;;;18.75;14.75;;;;;10.29;69.01;100450.59;5016611;28;45754;-73
2022/11/14 06:35:28;;;;;;;;;19.75;14.75;;;;;10.30;69.14;100452.28;5015923;28;45923;-74
2022/11/14 06:37:54;;;;;;;;;15.50;14.25;;;;;10.30;69.28;100456.66;5016796;28;45734;-74
2022/11/14 06:40:19;;;;;;;;;16.75;13.50;;;;;10.27;69.02;100449.00;5016516;28;45783;-74
2022/11/14 06:42:44;;;;;;;;;17.50;12.25;;;;;10.31;69.03;100453.91;5016354;28;46695;-74
2022/11/14 06:48:32;;;;;;;;;19.00;15.50;;;;;10.30;68.79;100456.66;5016208;28;45861;-73
2022/11/14 06:50:58;;;;;;;;;12.50;12.00;;;;;10.29;68.91;100455.84;5016491;28;45872;-73
2022/11/14 06:53:25;;;;;;;;;12.25;11.50;;;;;10.30;68.96;100456.66;5016226;28;46192;-73
2022/11/14 06:55:57;;;;;;;;;13.25;12.50;;;;;10.28;69.05;100463.78;5016457;28;46090;-73
2022/11/14 06:58:32;;;;;;;;;16.00;13.00;;;;;10.27;68.81;100470.81;4998373;28;45702;-74
2022/11/14 07:01:14;;;;;;;;;15.00;11.00;;;;;10.29;69.13;100475.94;4998263;28;45512;-74
2022/11/14 07:03:40;;;;;;;;;14.00;11.25;;;;;10.26;68.83;100484.00;5016563;28;46590;-74
2022/11/14 07:06:07;;;;;;;;;12.25;11.75;;;;;10.28;68.84;100488.19;5015974;28;46001;-73
2022/11/14 07:08:33;;;;;;;;;15.50;11.75;;;;;10.24;68.78;100483.28;5016542;28;45877;-84
2022/11/14 07:11:07;;;;;;;;;17.50;13.00;;;;;10.11;68.67;100463.19;5017039;28;45636;-76
2022/11/14 07:13:33;;;;;;;;;19.50;14.75;;;;;10.27;68.90;100489.13;5017363;28;45537;-83
2022/11/14 07:16:00;;;;;;;;;13.50;13.00;;;;;10.29;68.98;100489.03;4999416;28;47951;-83
2022/11/14 07:18:26;;;;;;;;;11.25;10.50;;;;;10.29;68.91;100483.78;5017244;28;45718;-85
2022/11/14 07:21:00;;;;;;;;;11.25;11.00;;;;;10.28;68.93;100485.56;4998478;28;45815;-83
2022/11/14 07:23:25;;;;;;;;;13.00;12.00;;;;;10.20;68.96;100468.75;5016898;28;46589;-76
2022/11/14 07:25:51;;;;;;;;;15.25;12.50;;;;;10.29;68.97;100484.63;4998865;28;47349;-80
2022/11/14 07:28:16;;;;;;;;;12.25;10.50;;;;;10.29;68.98;100499.50;5016998;28;45670;-74
2022/11/14 07:34:04;;;;;;;;;12.50;10.75;;;;;10.17;69.02;100466.34;5016983;28;46139;-81
2022/11/14 07:36:30;;;;;;;;;18.00;13.00;;;;;10.23;68.76;100481.59;5016421;28;47326;-79
2022/11/14 07:38:55;;;;;;;;;20.25;14.75;;;;;10.22;68.70;100486.00;5016154;28;45560;-80
2022/11/14 07:41:21;;;;;;;;;12.00;11.75;;;;;10.26;69.02;100486.59;5016039;28;45881;-81
2022/11/14 07:43:46;;;;;;;;;16.00;14.00;;;;;10.21;68.94;100480.88;5015939;28;46171;-79
2022/11/14 07:46:16;;;;;;;;;16.50;14.50;;;;;10.23;69.06;100486.84;5016218;28;45609;-79
2022/11/14 07:48:43;;;;;;;;;15.25;11.50;;;;;10.23;69.06;100486.84;4997928;28;45960;-80
2022/11/14 07:51:14;;;;;;;;;16.75;13.00;;;;;10.21;68.83;100473.84;5016203;28;45741;-80
2022/11/14 07:53:39;;;;;;;;;17.50;13.50;;;;;10.26;68.88;100486.59;4997961;28;47456;-81
2022/11/14 07:56:10;;;;;;;;;14.75;12.75;;;;;10.24;69.08;100486.75;5015466;28;47050;-82
2022/11/14 07:58:36;;;;;;;;;17.00;13.75;;;;;10.27;68.78;100489.13;5015509;28;45660;-80
2022/11/14 08:04:24;;;;;;;;;13.50;11.25;;;;;10.30;68.85;100486.31;5015839;28;46093;-77
2022/11/14 08:06:50;;;;;;;;;15.75;12.75;;;;;10.29;69.00;100473.31;5016357;28;45707;-78
2022/11/14 08:09:15;;;;;;;;;11.75;11.25;;;;;10.31;69.15;100479.28;5016023;28;45659;-80
2022/11/14 08:11:46;;;;;;;;;11.25;11.00;;;;;10.27;68.98;100476.03;5016269;28;45792;-81
2022/11/14 08:14:12;;;;;;;;;9.00;8.00;;;;;10.28;68.95;100466.41;5015654;28;45524;-81
2022/11/14 08:16:37;;;;;;;;;8.75;8.00;;;;;10.31;68.98;100477.47;5015054;28;47025;-79
2022/11/14 08:19:03;;;;;;;;;14.75;11.00;;;;;10.32;68.98;100483.56;5014654;28;45655;-78
2022/11/14 08:21:28;;;;;;;;;10.50;9.75;;;;;10.34;68.75;100477.28;5015955;28;45504;-80
2022/11/14 08:23:53;;;;;;;;;13.25;12.00;;;;;10.37;68.78;100489.28;5014963;28;45654;-82
2022/11/14 08:26:19;;;;;;;;;9.00;8.25;;;;;10.36;68.87;100480.63;5015926;28;45679;-81
2022/11/14 08:28:46;;;;;;;;;12.75;9.50;;;;;10.36;68.69;100477.19;5016669;28;45748;-78
2022/11/14 08:34:33;;;;;;;;;12.00;12.00;;;;;10.40;68.71;100482.06;5015642;28;45549;-76
2022/11/14 08:37:00;;;;;;;;;14.25;12.25;;;;;10.42;68.52;100479.31;5015617;28;45959;-79
2022/11/14 08:39:25;;;;;;;;;16.00;12.50;;;;;10.43;68.67;100481.84;5015821;28;45537;-80
2022/11/14 08:41:51;;;;;;;;;15.50;13.25;;;;;10.42;68.62;100480.16;5015717;28;45665;-81
2022/11/14 08:44:16;;;;;;;;;11.25;11.00;;;;;10.47;68.53;100482.47;5015086;28;45575;-79
2022/11/14 08:50:04;;;;;;;;;10.75;7.75;;;;;10.45;68.63;100466.03;5014854;28;45711;-82
2022/11/14 08:52:29;;;;;;;;;13.25;12.25;;;;;10.44;68.50;100474.81;5014694;28;45838;-75
2022/11/14 08:54:54;;;;;;;;;59.00;45.75;;;;;10.47;68.93;100480.66;5014896;28;45802;-78
2022/11/14 08:57:20;;;;;;;;;68.00;49.25;;;;;10.54;68.84;100486.28;5014374;28;46276;-73
2022/11/14 08:59:45;;;;;;;;;75.50;55.00;;;;;10.57;68.86;100495.72;5014546;28;45712;-76
2022/11/14 09:02:12;;;;;;;;;25.50;23.50;;;;;10.54;68.88;100481.06;4997120;28;45945;-75
2022/11/14 09:04:38;;;;;;;;;18.75;14.75;;;;;10.61;68.77;100491.94;5014475;28;47420;-80
2022/11/14 09:07:04;;;;;;;;;17.75;15.00;;;;;10.62;68.96;100491.00;5014664;28;46047;-79
2022/11/14 09:09:30;;;;;;;;;24.75;19.75;;;;;10.66;68.93;100489.81;5014795;28;45788;-78
2022/11/14 09:11:55;;;;;;;;;65.00;50.00;;;;;10.67;68.93;100486.25;4996930;28;45650;-80
2022/11/14 09:14:21;;;;;;;;;44.75;37.00;;;;;10.71;69.05;100485.91;5014607;28;46658;-79
2022/11/14 09:20:08;;;;;;;;;13.50;12.00;;;;;10.76;68.69;100483.78;5014426;28;45643;-80
2022/11/14 09:22:33;;;;;;;;;14.25;13.00;;;;;10.82;68.70;100482.50;5014785;28;45904;-80
2022/11/14 09:24:59;;;;;;;;;17.75;13.00;;;;;10.84;68.43;100481.44;5014603;28;46223;-79
2022/11/14 09:27:25;;;;;;;;;14.00;12.50;;;;;10.88;68.48;100482.03;5014429;28;46290;-80
2022/11/14 09:29:51;;;;;;;;;22.00;17.25;;;;;10.83;68.62;100479.75;4997147;28;45938;-79
2022/11/14 09:32:17;;;;;;;;;12.25;12.00;;;;;10.81;68.57;100471.16;5014910;28;45619;-79
2022/11/14 09:34:44;;;;;;;;;16.00;13.75;;;;;10.94;68.66;100489.44;5004162;28;47229;-75
2022/11/14 09:37:10;;;;;;;;;13.00;12.25;;;;;10.93;68.56;100483.38;5014293;28;45621;-81
2022/11/14 09:39:39;;;;;;;;;51.00;39.00;;;;;10.94;68.65;100477.19;5014901;28;45542;-77
2022/11/14 09:42:30;;;;;;;;;17.75;15.50;;;;;11.03;68.30;100482.69;5014413;28;45849;-76
2022/11/14 09:45:01;;;;;;;;;17.25;15.25;;;;;11.06;68.50;100480.69;5014504;28;45645;-75
2022/11/14 09:47:37;;;;;;;;;16.00;12.50;;;;;11.09;68.33;100484.84;5014398;28;46033;-80
2022/11/14 09:50:13;;;;;;;;;16.00;13.00;;;;;11.12;68.25;100477.56;5014600;28;45540;-81
2022/11/14 09:53:00;;;;;;;;;24.25;20.00;;;;;11.14;68.40;100474.84;5014639;28;45817;-77
2022/11/14 09:55:30;;;;;;;;;25.75;19.50;;;;;11.10;68.57;100466.38;5013931;28;46667;-81
2022/11/14 09:57:56;;;;;;;;;25.50;22.50;;;;;11.17;68.25;100479.88;5013579;28;47237;-79
2022/11/14 10:00:24;;;;;;;;;18.75;15.75;;;;;11.20;68.17;100480.47;5013567;28;45527;-78
2022/11/14 10:03:23;;;;;;;;;22.75;17.75;;;;;11.23;68.30;100479.38;5013807;28;45594;-76
2022/11/14 10:06:18;;;;;;;;;23.75;19.50;;;;;11.27;68.07;100486.09;5013769;28;45608;-78
2022/11/14 10:08:50;;;;;;;;;26.75;23.75;;;;;11.30;67.95;100501.56;5008009;28;46063;-76
2022/11/14 10:11:28;;;;;;;;;21.25;17.50;;;;;11.33;68.19;100493.50;5013584;28;45853;-80
2022/11/14 10:13:53;;;;;;;;;25.00;19.00;;;;;11.37;67.91;100500.16;5012339;28;45661;-80
2022/11/14 10:16:41;;;;;;;;;23.75;19.75;;;;;11.41;67.74;100485.03;5013128;28;47166;-78
2022/11/14 10:19:30;;;;;;;;;26.00;22.50;;;;;11.39;67.57;100473.84;5013260;28;45985;-74
2022/11/14 10:22:14;;;;;;;;;23.50;19.50;;;;;11.43;67.40;100467.38;5012040;28;45598;-76
2022/11/14 10:24:51;;;;;;;;;25.25;20.75;;;;;11.45;67.34;100465.47;5013980;28;45766;-81
2022/11/14 10:27:52;;;;;;;;;22.00;20.25;;;;;11.45;67.59;100468.09;5013111;28;45589;-77
2022/11/14 10:30:18;;;;;;;;;21.50;20.50;;;;;11.44;67.47;100469.06;5013582;28;46124;-76
2022/11/14 10:32:44;;;;;;;;;23.25;20.50;;;;;11.49;67.52;100467.75;5013448;28;45823;-80
2022/11/14 10:35:15;;;;;;;;;23.25;19.75;;;;;11.51;67.24;100465.84;5013573;28;45679;-79
2022/11/14 10:38:10;;;;;;;;;27.25;23.00;;;;;11.53;67.14;100457.84;5013387;28;46080;-77
2022/11/14 10:40:46;;;;;;;;;24.25;19.75;;;;;11.55;67.37;100453.34;4913817;28;46215;-80
2022/11/14 10:43:27;;;;;;;;;18.00;17.00;;;;;11.54;67.18;100446.41;4914041;28;45547;-80
2022/11/14 10:49:18;;;;;;;;;20.75;19.25;;;;;11.57;67.10;100448.78;4913682;28;46076;-77
2022/11/14 10:51:50;;;;;;;;;25.25;21.00;;;;;11.60;67.04;100448.56;4913922;28;45628;-79
2022/11/14 10:54:29;;;;;;;;;21.75;21.25;;;;;11.58;67.06;100445.22;4913759;28;45802;-79
2022/11/14 10:56:55;;;;;;;;;24.00;19.75;;;;;11.62;66.97;100439.59;4916818;28;45895;-76
2022/11/14 10:59:21;;;;;;;;;20.00;19.00;;;;;11.64;66.99;100447.34;4916991;28;45682;-79
2022/11/14 11:05:15;;;;;;;;;21.00;18.25;;;;;11.65;66.88;100442.00;4917027;28;45690;-77
2022/11/14 11:13:31;;;;;;;;;25.25;18.00;;;;;11.66;67.05;100437.59;4903386;28;46071;-77
2022/11/14 11:15:59;;;;;;;;;19.75;19.00;;;;;11.63;67.16;100433.41;4916671;28;45904;-77
2022/11/14 11:18:25;;;;;;;;;22.25;20.75;;;;;11.64;67.22;100421.13;4999696;28;45938;-77
2022/11/14 11:21:11;;;;;;;;;21.00;18.25;;;;;11.64;67.30;100427.19;5016272;28;46612;-79
2022/11/14 11:23:53;;;;;;;;;20.00;18.50;;;;;11.64;67.35;100413.25;5016406;28;45596;-77
2022/11/14 11:26:31;;;;;;;;;21.25;17.75;;;;;11.64;67.49;100418.50;5015946;28;45967;-73
2022/11/14 11:29:25;;;;;;;;;23.75;20.25;;;;;11.65;67.40;100418.38;5016478;28;45491;-73
2022/11/14 11:31:53;;;;;;;;;24.75;20.75;;;;;11.63;67.47;100417.66;4916274;28;46788;-81
2022/11/14 11:34:24;;;;;;;;;19.50;18.00;;;;;11.68;67.45;100410.25;4924039;28;47099;-77
2022/11/14 11:37:20;;;;;;;;;20.00;19.00;;;;;11.69;67.48;100406.69;4935436;28;45692;-73
2022/11/14 11:39:54;;;;;;;;;29.50;22.75;;;;;11.65;67.75;100393.94;4930170;28;45674;-73
2022/11/14 11:42:50;;;;;;;;;19.00;19.00;;;;;11.72;67.49;100387.22;4935531;28;46320;-77
2022/11/14 11:45:17;;;;;;;;;25.75;21.75;;;;;11.70;67.71;100384.75;4878057;29;47285;-74
2022/11/14 11:47:55;;;;;;;;;20.50;18.00;;;;;11.69;67.74;100371.72;4878076;29;45906;-77
2022/11/14 11:50:23;;;;;;;;;20.75;18.50;;;;;11.76;67.89;100376.41;4862842;29;45647;-73
2022/11/14 11:52:58;;;;;;;;;23.00;21.50;;;;;11.79;67.88;100367.44;4877174;29;46604;-73
2022/11/14 11:55:28;;;;;;;;;23.75;22.75;;;;;11.77;67.56;100366.72;4878226;29;46160;-73
2022/11/14 11:58:15;;;;;;;;;26.50;22.50;;;;;11.78;67.70;100358.72;4877877;29;45867;-74
2022/11/14 12:00:40;;;;;;;;;23.25;22.00;;;;;11.90;67.75;100366.59;4878550;29;45789;-73
2022/11/14 12:03:12;;;;;;;;;26.00;24.50;;;;;11.92;67.78;100362.88;4878011;29;45682;-77
2022/11/14 12:05:55;;;;;;;;;24.50;21.25;;;;;11.95;67.89;100367.03;4877506;29;46185;-75
2022/11/14 12:08:41;;;;;;;;;32.00;24.50;;;;;11.96;67.78;100353.81;4908621;28;45925;-77
2022/11/14 12:11:15;;;;;;;;;23.00;20.50;;;;;11.97;67.71;100347.59;4935078;28;45677;-79
2022/11/14 12:13:51;;;;;;;;;25.50;20.75;;;;;12.01;67.99;100348.16;4934931;28;46452;-80
2022/11/14 12:20:07;;;;;;;;;21.00;20.25;;;;;12.01;68.02;100322.75;4935077;28;45929;-79
2022/11/14 12:22:51;;;;;;;;;25.50;24.00;;;;;12.07;68.03;100335.38;4987513;28;45695;-78
2022/11/14 12:25:31;;;;;;;;;24.25;22.50;;;;;12.10;68.13;100335.13;5014659;28;46857;-79
2022/11/14 12:28:19;;;;;;;;;23.75;21.25;;;;;12.12;68.21;100332.38;5014837;28;46006;-80
2022/11/14 12:30:52;;;;;;;;;24.00;20.75;;;;;12.11;68.30;100325.44;5013379;28;45805;-72
2022/11/14 12:37:16;;;;;;;;;24.75;22.25;;;;;12.21;68.44;100318.47;5013878;28;46014;-81
2022/11/14 12:40:00;;;;;;;;;25.75;25.00;;;;;12.25;68.11;100325.16;5015390;28;46110;-80
2022/11/14 12:42:25;;;;;;;;;29.25;23.25;;;;;12.25;68.31;100314.66;5015119;28;45522;-80
2022/11/14 12:44:51;;;;;;;;;27.50;23.00;;;;;12.31;68.57;100308.88;5015253;28;45751;-80
2022/11/14 12:50:41;;;;;;;;;26.00;23.00;;;;;12.37;68.43;100300.50;5014727;28;46260;-77
2022/11/14 12:53:35;;;;;;;;;29.50;25.50;;;;;12.43;68.37;100305.22;5014985;28;45808;-76